Hauptseite
METAR-TAF:

METAR-TAF

Flughäfen :

Wattisham, England

Breite: 52-07N, Länge: 000-58E, Höhe: 87 m

Beobachtung

Neuester Wetterbericht von vor 58 Minuten, um 11:50 UTC
Wind 10 kt aus Nord
Temperatur 11°C
Luftfeuchtigkeit 66%
Luftdruck 1036 hPa
Sichtweite 10 km oder mehr
Leicht bewölkt in der Höhe von 2400 ft

METAR: EGUW 221150Z 36010KT 9999 FEW024 11/05 Q1036 BLU NOSIG

Zeit: 13:48 (12:48 UTC)

Prognose

Neuester Wetterbericht von vor 1 Stunde und 52 Minuten, um 10:56 UTC
Gültige Prognose vom 22 um 12 UTC bis 22 um 21 UTC
Wind 10 kt aus Nord/Nordwest
Sichtweite 10 km oder mehr
keine Wolken unter 1500 m und keine Kumulonimbus oder Gewitterwolken

TAF: EGUW 221056Z 2212/2221 34010KT CAVOK

Wetterbeobachtungen und Prognosen von mehr als 4000 Flughäfen (METAR und TAF Bericht).

Die verfügbaren Stationen werden durch gelbe und rote Markierungen auf der Karte dargestellt.

Führen Sie die Maus auf sie, um den Namen der Station zu sehen.

Darauf klicken, um die Beobachtung von Wetterbeobachtungen und Prognosen zu sehen.

Um die Karte zu ändern : klicken Sie auf den grünen Tasten mit einem schwarzen Kreuz Zum Vergrößern, auf den grünen Button mit einem Gedankenstrich zu verkleinern, oder auf die grünen Pfeile für benachbarte Karten.


METAR-TAF: